sensor_id;sensor_type;location;lat;lon;timestamp;temperature;humidity
2851;DHT22;1433;49.976;8.342;2023-04-25T00:00:41;8.00;99.90
2851;DHT22;1433;49.976;8.342;2023-04-25T00:03:07;7.90;99.90
2851;DHT22;1433;49.976;8.342;2023-04-25T00:05:34;8.00;99.90
2851;DHT22;1433;49.976;8.342;2023-04-25T00:08:04;8.00;99.90
2851;DHT22;1433;49.976;8.342;2023-04-25T00:10:31;7.90;99.90
2851;DHT22;1433;49.976;8.342;2023-04-25T00:12:57;8.00;99.90
2851;DHT22;1433;49.976;8.342;2023-04-25T00:15:24;8.00;99.90
2851;DHT22;1433;49.976;8.342;2023-04-25T00:17:51;8.00;99.90
2851;DHT22;1433;49.976;8.342;2023-04-25T00:20:18;8.10;99.90
2851;DHT22;1433;49.976;8.342;2023-04-25T00:22:45;8.10;99.90
2851;DHT22;1433;49.976;8.342;2023-04-25T00:25:11;8.20;99.90
2851;DHT22;1433;49.976;8.342;2023-04-25T00:27:37;8.20;99.90
2851;DHT22;1433;49.976;8.342;2023-04-25T00:30:05;8.30;99.90
2851;DHT22;1433;49.976;8.342;2023-04-25T00:32:32;8.40;99.90
2851;DHT22;1433;49.976;8.342;2023-04-25T00:34:58;8.40;99.90
2851;DHT22;1433;49.976;8.342;2023-04-25T00:37:24;8.50;99.90
2851;DHT22;1433;49.976;8.342;2023-04-25T00:39:51;8.50;99.90
2851;DHT22;1433;49.976;8.342;2023-04-25T00:42:19;8.50;99.90
2851;DHT22;1433;49.976;8.342;2023-04-25T00:44:47;8.50;99.90
2851;DHT22;1433;49.976;8.342;2023-04-25T00:47:13;8.40;99.90
2851;DHT22;1433;49.976;8.342;2023-04-25T00:49:40;8.30;99.90
2851;DHT22;1433;49.976;8.342;2023-04-25T00:52:06;8.30;99.90
2851;DHT22;1433;49.976;8.342;2023-04-25T00:54:33;8.30;99.90
2851;DHT22;1433;49.976;8.342;2023-04-25T00:57:00;8.30;99.90
2851;DHT22;1433;49.976;8.342;2023-04-25T00:59:27;8.20;99.90
2851;DHT22;1433;49.976;8.342;2023-04-25T01:01:55;8.30;99.90
2851;DHT22;1433;49.976;8.342;2023-04-25T01:04:22;8.30;99.90
2851;DHT22;1433;49.976;8.342;2023-04-25T01:06:49;8.30;99.90
2851;DHT22;1433;49.976;8.342;2023-04-25T01:09:15;8.40;99.90
2851;DHT22;1433;49.976;8.342;2023-04-25T01:11:42;8.40;99.90
2851;DHT22;1433;49.976;8.342;2023-04-25T01:14:10;8.40;99.90
2851;DHT22;1433;49.976;8.342;2023-04-25T01:16:37;8.40;99.90
2851;DHT22;1433;49.976;8.342;2023-04-25T01:19:09;8.40;99.90
2851;DHT22;1433;49.976;8.342;2023-04-25T01:21:39;8.50;99.90
2851;DHT22;1433;49.976;8.342;2023-04-25T01:24:06;8.40;99.90
2851;DHT22;1433;49.976;8.342;2023-04-25T01:26:33;8.40;99.90
2851;DHT22;1433;49.976;8.342;2023-04-25T01:29:01;8.40;99.90
2851;DHT22;1433;49.976;8.342;2023-04-25T01:31:28;8.40;99.90
2851;DHT22;1433;49.976;8.342;2023-04-25T01:33:54;8.50;99.90
2851;DHT22;1433;49.976;8.342;2023-04-25T01:36:21;8.50;99.90
2851;DHT22;1433;49.976;8.342;2023-04-25T01:38:47;8.50;99.90
2851;DHT22;1433;49.976;8.342;2023-04-25T01:41:14;8.50;99.90
2851;DHT22;1433;49.976;8.342;2023-04-25T01:43:40;8.50;99.90
2851;DHT22;1433;49.976;8.342;2023-04-25T01:46:07;8.40;99.90
2851;DHT22;1433;49.976;8.342;2023-04-25T01:48:33;8.40;99.90
2851;DHT22;1433;49.976;8.342;2023-04-25T01:51:00;8.40;99.90
2851;DHT22;1433;49.976;8.342;2023-04-25T01:53:28;8.40;99.90
2851;DHT22;1433;49.976;8.342;2023-04-25T01:55:54;8.40;99.90
2851;DHT22;1433;49.976;8.342;2023-04-25T01:58:22;8.40;99.90
2851;DHT22;1433;49.976;8.342;2023-04-25T02:00:53;8.40;99.90
2851;DHT22;1433;49.976;8.342;2023-04-25T02:03:20;8.40;99.90
2851;DHT22;1433;49.976;8.342;2023-04-25T02:05:46;8.40;99.90
2851;DHT22;1433;49.976;8.342;2023-04-25T02:08:13;8.40;99.90
2851;DHT22;1433;49.976;8.342;2023-04-25T02:10:40;8.40;99.90
2851;DHT22;1433;49.976;8.342;2023-04-25T02:13:08;8.40;99.90
2851;DHT22;1433;49.976;8.342;2023-04-25T02:15:52;8.40;99.90
2851;DHT22;1433;49.976;8.342;2023-04-25T02:18:19;8.30;99.90
2851;DHT22;1433;49.976;8.342;2023-04-25T02:20:47;8.30;99.90
2851;DHT22;1433;49.976;8.342;2023-04-25T02:23:13;8.30;99.90
2851;DHT22;1433;49.976;8.342;2023-04-25T02:25:41;8.30;99.90
2851;DHT22;1433;49.976;8.342;2023-04-25T02:28:08;8.30;99.90
2851;DHT22;1433;49.976;8.342;2023-04-25T02:30:35;8.30;99.90
2851;DHT22;1433;49.976;8.342;2023-04-25T02:33:03;8.30;99.90
2851;DHT22;1433;49.976;8.342;2023-04-25T02:35:30;8.20;99.90
2851;DHT22;1433;49.976;8.342;2023-04-25T02:37:56;8.20;99.90
2851;DHT22;1433;49.976;8.342;2023-04-25T02:40:23;8.20;99.90
2851;DHT22;1433;49.976;8.342;2023-04-25T02:42:49;8.20;99.90
2851;DHT22;1433;49.976;8.342;2023-04-25T02:45:15;8.10;99.90
2851;DHT22;1433;49.976;8.342;2023-04-25T02:47:41;8.10;99.90
2851;DHT22;1433;49.976;8.342;2023-04-25T02:50:08;8.10;99.90
2851;DHT22;1433;49.976;8.342;2023-04-25T02:52:34;8.10;99.90
2851;DHT22;1433;49.976;8.342;2023-04-25T02:55:03;8.10;99.90
2851;DHT22;1433;49.976;8.342;2023-04-25T02:57:30;8.10;99.90
2851;DHT22;1433;49.976;8.342;2023-04-25T02:59:56;8.10;99.90
2851;DHT22;1433;49.976;8.342;2023-04-25T03:02:23;8.10;99.90
2851;DHT22;1433;49.976;8.342;2023-04-25T03:04:49;8.10;99.90
2851;DHT22;1433;49.976;8.342;2023-04-25T03:07:16;8.10;99.90
2851;DHT22;1433;49.976;8.342;2023-04-25T03:09:42;8.20;99.90
2851;DHT22;1433;49.976;8.342;2023-04-25T03:12:08;8.20;99.90
2851;DHT22;1433;49.976;8.342;2023-04-25T03:14:35;8.10;99.90
2851;DHT22;1433;49.976;8.342;2023-04-25T03:17:01;8.10;99.90
2851;DHT22;1433;49.976;8.342;2023-04-25T03:19:28;8.20;99.90
2851;DHT22;1433;49.976;8.342;2023-04-25T03:21:54;8.20;99.90
2851;DHT22;1433;49.976;8.342;2023-04-25T03:24:22;8.20;99.90
2851;DHT22;1433;49.976;8.342;2023-04-25T03:26:48;8.20;99.90
2851;DHT22;1433;49.976;8.342;2023-04-25T03:29:15;8.20;99.90
2851;DHT22;1433;49.976;8.342;2023-04-25T03:31:41;8.10;99.90
2851;DHT22;1433;49.976;8.342;2023-04-25T03:34:08;8.10;99.90
2851;DHT22;1433;49.976;8.342;2023-04-25T03:36:35;8.20;99.90
2851;DHT22;1433;49.976;8.342;2023-04-25T03:39:02;8.20;99.90
2851;DHT22;1433;49.976;8.342;2023-04-25T03:41:30;8.10;99.90
2851;DHT22;1433;49.976;8.342;2023-04-25T03:43:58;8.10;99.90
2851;DHT22;1433;49.976;8.342;2023-04-25T03:46:24;8.10;99.90
2851;DHT22;1433;49.976;8.342;2023-04-25T03:48:50;8.10;99.90
2851;DHT22;1433;49.976;8.342;2023-04-25T03:51:19;8.10;99.90
2851;DHT22;1433;49.976;8.342;2023-04-25T03:53:45;8.10;99.90
2851;DHT22;1433;49.976;8.342;2023-04-25T03:56:30;8.20;99.90
2851;DHT22;1433;49.976;8.342;2023-04-25T03:58:58;8.10;99.90
2851;DHT22;1433;49.976;8.342;2023-04-25T04:01:25;8.10;99.90
2851;DHT22;1433;49.976;8.342;2023-04-25T04:03:52;8.10;99.90
2851;DHT22;1433;49.976;8.342;2023-04-25T04:06:18;8.10;99.90
2851;DHT22;1433;49.976;8.342;2023-04-25T04:08:48;8.10;99.90
2851;DHT22;1433;49.976;8.342;2023-04-25T04:11:14;8.10;99.90
2851;DHT22;1433;49.976;8.342;2023-04-25T04:13:41;8.10;99.90
2851;DHT22;1433;49.976;8.342;2023-04-25T04:16:08;8.00;99.90
2851;DHT22;1433;49.976;8.342;2023-04-25T04:18:34;8.00;99.90
2851;DHT22;1433;49.976;8.342;2023-04-25T04:21:01;8.00;99.90
2851;DHT22;1433;49.976;8.342;2023-04-25T04:23:30;7.90;99.90
2851;DHT22;1433;49.976;8.342;2023-04-25T04:25:58;7.90;99.90
2851;DHT22;1433;49.976;8.342;2023-04-25T04:28:28;7.90;99.90
2851;DHT22;1433;49.976;8.342;2023-04-25T04:31:06;7.80;99.90
2851;DHT22;1433;49.976;8.342;2023-04-25T04:33:33;7.70;99.90
2851;DHT22;1433;49.976;8.342;2023-04-25T04:36:03;7.70;99.90
2851;DHT22;1433;49.976;8.342;2023-04-25T04:38:30;7.70;99.90
2851;DHT22;1433;49.976;8.342;2023-04-25T04:40:58;7.60;99.90
2851;DHT22;1433;49.976;8.342;2023-04-25T04:43:30;7.60;99.90
2851;DHT22;1433;49.976;8.342;2023-04-25T04:46:04;7.60;99.90
2851;DHT22;1433;49.976;8.342;2023-04-25T04:48:48;7.50;99.90
2851;DHT22;1433;49.976;8.342;2023-04-25T04:51:24;7.50;99.90
2851;DHT22;1433;49.976;8.342;2023-04-25T04:53:54;7.40;99.90
2851;DHT22;1433;49.976;8.342;2023-04-25T04:56:24;7.40;99.90
2851;DHT22;1433;49.976;8.342;2023-04-25T04:59:05;7.40;99.90
2851;DHT22;1433;49.976;8.342;2023-04-25T05:01:49;7.40;99.90
2851;DHT22;1433;49.976;8.342;2023-04-25T05:04:15;7.30;99.90
2851;DHT22;1433;49.976;8.342;2023-04-25T05:06:44;7.20;99.90
2851;DHT22;1433;49.976;8.342;2023-04-25T05:09:25;7.10;99.90
2851;DHT22;1433;49.976;8.342;2023-04-25T05:11:56;7.10;99.90
2851;DHT22;1433;49.976;8.342;2023-04-25T05:14:24;7.00;99.90
2851;DHT22;1433;49.976;8.342;2023-04-25T05:16:52;7.10;99.90
2851;DHT22;1433;49.976;8.342;2023-04-25T05:19:39;7.20;99.90
2851;DHT22;1433;49.976;8.342;2023-04-25T05:22:19;7.30;99.90
2851;DHT22;1433;49.976;8.342;2023-04-25T05:25:04;7.30;99.90
2851;DHT22;1433;49.976;8.342;2023-04-25T05:27:33;7.40;99.90
2851;DHT22;1433;49.976;8.342;2023-04-25T05:30:20;7.50;99.90
2851;DHT22;1433;49.976;8.342;2023-04-25T05:32:51;7.60;99.90
2851;DHT22;1433;49.976;8.342;2023-04-25T05:35:18;7.70;99.90
2851;DHT22;1433;49.976;8.342;2023-04-25T05:37:46;7.70;99.90
2851;DHT22;1433;49.976;8.342;2023-04-25T05:40:13;7.70;99.90
2851;DHT22;1433;49.976;8.342;2023-04-25T05:42:45;7.70;99.90
2851;DHT22;1433;49.976;8.342;2023-04-25T05:45:30;7.60;99.90
2851;DHT22;1433;49.976;8.342;2023-04-25T05:48:15;7.60;99.90
2851;DHT22;1433;49.976;8.342;2023-04-25T05:50:43;7.60;99.90
2851;DHT22;1433;49.976;8.342;2023-04-25T05:53:11;7.70;99.90
2851;DHT22;1433;49.976;8.342;2023-04-25T05:55:42;7.70;99.90
2851;DHT22;1433;49.976;8.342;2023-04-25T05:58:13;7.80;99.90
2851;DHT22;1433;49.976;8.342;2023-04-25T06:00:39;7.80;99.90
2851;DHT22;1433;49.976;8.342;2023-04-25T06:03:07;7.80;99.90
2851;DHT22;1433;49.976;8.342;2023-04-25T06:05:36;7.90;99.90
2851;DHT22;1433;49.976;8.342;2023-04-25T06:08:03;7.80;99.90
2851;DHT22;1433;49.976;8.342;2023-04-25T06:10:29;7.70;99.90
2851;DHT22;1433;49.976;8.342;2023-04-25T06:12:55;7.80;99.90
2851;DHT22;1433;49.976;8.342;2023-04-25T06:15:22;7.90;99.90
2851;DHT22;1433;49.976;8.342;2023-04-25T06:17:49;8.00;99.90
2851;DHT22;1433;49.976;8.342;2023-04-25T06:20:15;8.10;99.90
2851;DHT22;1433;49.976;8.342;2023-04-25T06:22:41;8.20;99.90
2851;DHT22;1433;49.976;8.342;2023-04-25T06:25:08;8.20;99.90
2851;DHT22;1433;49.976;8.342;2023-04-25T06:27:35;8.30;99.90
2851;DHT22;1433;49.976;8.342;2023-04-25T06:30:02;8.30;99.90
2851;DHT22;1433;49.976;8.342;2023-04-25T06:32:30;8.10;99.90
2851;DHT22;1433;49.976;8.342;2023-04-25T06:34:58;8.10;99.90
2851;DHT22;1433;49.976;8.342;2023-04-25T06:37:24;8.10;99.90
2851;DHT22;1433;49.976;8.342;2023-04-25T06:39:51;8.00;99.90
2851;DHT22;1433;49.976;8.342;2023-04-25T06:42:17;8.10;99.90
2851;DHT22;1433;49.976;8.342;2023-04-25T06:44:47;8.10;99.90
2851;DHT22;1433;49.976;8.342;2023-04-25T06:47:15;8.10;99.90
2851;DHT22;1433;49.976;8.342;2023-04-25T06:49:42;8.30;99.90
2851;DHT22;1433;49.976;8.342;2023-04-25T06:52:08;8.50;99.90
2851;DHT22;1433;49.976;8.342;2023-04-25T06:54:35;8.40;99.90
2851;DHT22;1433;49.976;8.342;2023-04-25T06:57:03;8.40;99.90
2851;DHT22;1433;49.976;8.342;2023-04-25T06:59:31;8.40;99.90
2851;DHT22;1433;49.976;8.342;2023-04-25T07:01:58;8.60;99.90
2851;DHT22;1433;49.976;8.342;2023-04-25T07:04:25;8.80;99.90
2851;DHT22;1433;49.976;8.342;2023-04-25T07:06:53;8.90;99.90
2851;DHT22;1433;49.976;8.342;2023-04-25T07:09:22;9.30;99.90
2851;DHT22;1433;49.976;8.342;2023-04-25T07:11:49;9.40;99.90
2851;DHT22;1433;49.976;8.342;2023-04-25T07:14:15;9.50;99.90
2851;DHT22;1433;49.976;8.342;2023-04-25T07:16:41;9.50;93.10
2851;DHT22;1433;49.976;8.342;2023-04-25T07:19:08;9.60;99.90
2851;DHT22;1433;49.976;8.342;2023-04-25T07:21:35;9.40;67.80
2851;DHT22;1433;49.976;8.342;2023-04-25T07:24:02;8.90;99.90
2851;DHT22;1433;49.976;8.342;2023-04-25T07:26:31;8.80;99.90
2851;DHT22;1433;49.976;8.342;2023-04-25T07:29:17;8.90;99.90
2851;DHT22;1433;49.976;8.342;2023-04-25T07:31:43;8.90;99.90
2851;DHT22;1433;49.976;8.342;2023-04-25T07:34:10;8.90;99.90
2851;DHT22;1433;49.976;8.342;2023-04-25T07:36:37;9.00;99.90
2851;DHT22;1433;49.976;8.342;2023-04-25T07:39:05;9.10;99.90
2851;DHT22;1433;49.976;8.342;2023-04-25T07:41:31;9.30;99.90
2851;DHT22;1433;49.976;8.342;2023-04-25T07:43:57;9.40;99.90
2851;DHT22;1433;49.976;8.342;2023-04-25T07:46:24;9.50;34.00
2851;DHT22;1433;49.976;8.342;2023-04-25T07:48:52;9.50;6.50
2851;DHT22;1433;49.976;8.342;2023-04-25T07:51:18;9.60;99.90
2851;DHT22;1433;49.976;8.342;2023-04-25T07:53:46;9.70;99.90
2851;DHT22;1433;49.976;8.342;2023-04-25T07:56:14;9.80;1.00
2851;DHT22;1433;49.976;8.342;2023-04-25T07:58:42;9.80;1.00
2851;DHT22;1433;49.976;8.342;2023-04-25T08:01:10;9.90;99.90
2851;DHT22;1433;49.976;8.342;2023-04-25T08:03:36;10.10;1.00
2851;DHT22;1433;49.976;8.342;2023-04-25T08:06:04;10.10;1.00
2851;DHT22;1433;49.976;8.342;2023-04-25T08:08:32;10.00;1.00
2851;DHT22;1433;49.976;8.342;2023-04-25T08:10:58;9.90;1.00
2851;DHT22;1433;49.976;8.342;2023-04-25T08:13:26;9.80;1.00
2851;DHT22;1433;49.976;8.342;2023-04-25T08:15:52;10.10;1.00
2851;DHT22;1433;49.976;8.342;2023-04-25T08:18:19;10.10;1.00
2851;DHT22;1433;49.976;8.342;2023-04-25T08:20:47;10.40;1.00
2851;DHT22;1433;49.976;8.342;2023-04-25T08:23:14;10.20;1.00
2851;DHT22;1433;49.976;8.342;2023-04-25T08:25:42;9.80;1.00
2851;DHT22;1433;49.976;8.342;2023-04-25T08:28:16;9.80;89.80
2851;DHT22;1433;49.976;8.342;2023-04-25T08:30:44;10.00;1.00
2851;DHT22;1433;49.976;8.342;2023-04-25T08:33:12;10.00;1.00
2851;DHT22;1433;49.976;8.342;2023-04-25T08:35:52;10.20;1.00
2851;DHT22;1433;49.976;8.342;2023-04-25T08:38:19;10.20;1.00
2851;DHT22;1433;49.976;8.342;2023-04-25T08:40:49;10.30;1.00
2851;DHT22;1433;49.976;8.342;2023-04-25T08:43:19;10.50;99.90
2851;DHT22;1433;49.976;8.342;2023-04-25T08:45:46;10.60;1.00
2851;DHT22;1433;49.976;8.342;2023-04-25T08:48:33;10.90;99.90
2851;DHT22;1433;49.976;8.342;2023-04-25T08:51:09;10.80;1.00
2851;DHT22;1433;49.976;8.342;2023-04-25T08:53:36;10.30;99.90
2851;DHT22;1433;49.976;8.342;2023-04-25T08:56:05;10.40;99.90
2851;DHT22;1433;49.976;8.342;2023-04-25T08:58:34;10.60;99.90
2851;DHT22;1433;49.976;8.342;2023-04-25T09:01:01;10.70;99.90
2851;DHT22;1433;49.976;8.342;2023-04-25T09:03:30;10.40;99.90
2851;DHT22;1433;49.976;8.342;2023-04-25T09:05:56;10.10;1.00
2851;DHT22;1433;49.976;8.342;2023-04-25T09:08:24;10.30;1.00
2851;DHT22;1433;49.976;8.342;2023-04-25T09:10:50;10.40;48.20
2851;DHT22;1433;49.976;8.342;2023-04-25T09:13:24;10.70;99.90
2851;DHT22;1433;49.976;8.342;2023-04-25T09:16:06;11.10;1.00
2851;DHT22;1433;49.976;8.342;2023-04-25T09:18:50;11.40;1.00
2851;DHT22;1433;49.976;8.342;2023-04-25T09:21:17;11.50;99.90
2851;DHT22;1433;49.976;8.342;2023-04-25T09:23:47;11.90;99.90
2851;DHT22;1433;49.976;8.342;2023-04-25T09:26:15;11.70;99.90
2851;DHT22;1433;49.976;8.342;2023-04-25T09:28:44;11.50;99.90
2851;DHT22;1433;49.976;8.342;2023-04-25T09:31:23;11.10;99.90
2851;DHT22;1433;49.976;8.342;2023-04-25T09:34:00;10.90;99.90
2851;DHT22;1433;49.976;8.342;2023-04-25T09:36:27;10.70;99.90
2851;DHT22;1433;49.976;8.342;2023-04-25T09:39:12;10.80;1.30
2851;DHT22;1433;49.976;8.342;2023-04-25T09:41:43;11.30;99.90
2851;DHT22;1433;49.976;8.342;2023-04-25T09:44:12;11.30;1.00
2851;DHT22;1433;49.976;8.342;2023-04-25T09:46:40;11.50;99.90
2851;DHT22;1433;49.976;8.342;2023-04-25T09:49:15;11.50;99.90
2851;DHT22;1433;49.976;8.342;2023-04-25T09:51:58;11.70;99.90
2851;DHT22;1433;49.976;8.342;2023-04-25T09:54:26;11.60;99.90
2851;DHT22;1433;49.976;8.342;2023-04-25T09:56:55;11.50;40.30
2851;DHT22;1433;49.976;8.342;2023-04-25T09:59:22;11.50;41.60
2851;DHT22;1433;49.976;8.342;2023-04-25T10:01:49;11.10;99.90
2851;DHT22;1433;49.976;8.342;2023-04-25T10:04:22;11.00;99.90
2851;DHT22;1433;49.976;8.342;2023-04-25T10:06:53;10.90;1.00
2851;DHT22;1433;49.976;8.342;2023-04-25T10:09:21;10.70;99.90
2851;DHT22;1433;49.976;8.342;2023-04-25T10:11:50;10.70;99.90
2851;DHT22;1433;49.976;8.342;2023-04-25T10:14:18;10.70;1.00
2851;DHT22;1433;49.976;8.342;2023-04-25T10:16:46;10.80;99.90
2851;DHT22;1433;49.976;8.342;2023-04-25T10:19:13;10.60;1.00
2851;DHT22;1433;49.976;8.342;2023-04-25T10:21:46;10.70;1.00
2851;DHT22;1433;49.976;8.342;2023-04-25T10:24:12;10.80;99.90
2851;DHT22;1433;49.976;8.342;2023-04-25T10:26:40;11.20;94.30
2851;DHT22;1433;49.976;8.342;2023-04-25T10:29:06;11.40;99.90
2851;DHT22;1433;49.976;8.342;2023-04-25T10:31:32;11.30;1.00
2851;DHT22;1433;49.976;8.342;2023-04-25T10:34:01;11.60;1.00
2851;DHT22;1433;49.976;8.342;2023-04-25T10:36:33;11.80;99.90
2851;DHT22;1433;49.976;8.342;2023-04-25T10:39:04;12.00;66.90
2851;DHT22;1433;49.976;8.342;2023-04-25T10:41:56;12.50;1.00
2851;DHT22;1433;49.976;8.342;2023-04-25T10:44:28;12.30;99.90
2851;DHT22;1433;49.976;8.342;2023-04-25T10:46:55;11.90;99.90
2851;DHT22;1433;49.976;8.342;2023-04-25T10:54:54;11.30;99.90
2851;DHT22;1433;49.976;8.342;2023-04-25T11:00:10;11.50;1.00
2851;DHT22;1433;49.976;8.342;2023-04-25T11:02:51;11.50;99.90
2851;DHT22;1433;49.976;8.342;2023-04-25T11:05:35;11.40;1.00
2851;DHT22;1433;49.976;8.342;2023-04-25T11:08:02;11.40;1.00
2851;DHT22;1433;49.976;8.342;2023-04-25T11:10:31;11.60;1.00
2851;DHT22;1433;49.976;8.342;2023-04-25T11:12:58;12.00;59.60
2851;DHT22;1433;49.976;8.342;2023-04-25T11:15:25;12.60;1.00
2851;DHT22;1433;49.976;8.342;2023-04-25T11:17:52;12.90;99.90
2851;DHT22;1433;49.976;8.342;2023-04-25T11:20:19;12.80;1.00
2851;DHT22;1433;49.976;8.342;2023-04-25T11:22:46;13.50;1.00
2851;DHT22;1433;49.976;8.342;2023-04-25T11:25:14;14.30;1.00
2851;DHT22;1433;49.976;8.342;2023-04-25T11:27:53;14.00;8.70
2851;DHT22;1433;49.976;8.342;2023-04-25T11:30:20;13.40;99.90
2851;DHT22;1433;49.976;8.342;2023-04-25T11:32:47;12.60;1.00
2851;DHT22;1433;49.976;8.342;2023-04-25T11:35:14;11.80;99.90
2851;DHT22;1433;49.976;8.342;2023-04-25T11:37:42;11.60;1.00
2851;DHT22;1433;49.976;8.342;2023-04-25T11:40:09;11.60;99.90
2851;DHT22;1433;49.976;8.342;2023-04-25T11:42:46;11.30;1.00
2851;DHT22;1433;49.976;8.342;2023-04-25T11:45:08;11.10;1.00
2851;DHT22;1433;49.976;8.342;2023-04-25T11:47:35;11.10;1.00
2851;DHT22;1433;49.976;8.342;2023-04-25T11:50:04;11.70;1.00
2851;DHT22;1433;49.976;8.342;2023-04-25T11:52:42;11.90;99.90
2851;DHT22;1433;49.976;8.342;2023-04-25T11:55:12;11.90;99.90
2851;DHT22;1433;49.976;8.342;2023-04-25T11:57:38;12.40;1.00
2851;DHT22;1433;49.976;8.342;2023-04-25T12:00:08;12.20;1.00
2851;DHT22;1433;49.976;8.342;2023-04-25T12:02:40;11.70;98.50
2851;DHT22;1433;49.976;8.342;2023-04-25T12:05:07;11.40;1.00
2851;DHT22;1433;49.976;8.342;2023-04-25T12:07:35;11.50;1.00
2851;DHT22;1433;49.976;8.342;2023-04-25T12:10:13;11.50;1.00
2851;DHT22;1433;49.976;8.342;2023-04-25T12:12:37;11.30;1.00
2851;DHT22;1433;49.976;8.342;2023-04-25T12:15:18;11.30;1.00
2851;DHT22;1433;49.976;8.342;2023-04-25T12:17:47;11.40;1.00
2851;DHT22;1433;49.976;8.342;2023-04-25T12:20:19;11.40;99.90
2851;DHT22;1433;49.976;8.342;2023-04-25T12:22:46;11.30;1.00
2851;DHT22;1433;49.976;8.342;2023-04-25T12:25:17;11.40;1.00
2851;DHT22;1433;49.976;8.342;2023-04-25T12:27:41;11.30;1.00
2851;DHT22;1433;49.976;8.342;2023-04-25T12:30:08;11.60;1.00
2851;DHT22;1433;49.976;8.342;2023-04-25T12:32:35;12.00;1.00
2851;DHT22;1433;49.976;8.342;2023-04-25T12:35:02;12.30;99.90
2851;DHT22;1433;49.976;8.342;2023-04-25T12:37:29;12.60;99.90
2851;DHT22;1433;49.976;8.342;2023-04-25T12:39:55;12.40;79.90
2851;DHT22;1433;49.976;8.342;2023-04-25T12:42:22;12.40;99.90
2851;DHT22;1433;49.976;8.342;2023-04-25T12:44:48;12.30;99.90
2851;DHT22;1433;49.976;8.342;2023-04-25T12:47:14;12.40;99.90
2851;DHT22;1433;49.976;8.342;2023-04-25T12:49:41;12.70;99.90
2851;DHT22;1433;49.976;8.342;2023-04-25T12:52:07;12.80;99.90
2851;DHT22;1433;49.976;8.342;2023-04-25T12:54:33;13.20;99.90
2851;DHT22;1433;49.976;8.342;2023-04-25T12:57:00;14.50;56.50
2851;DHT22;1433;49.976;8.342;2023-04-25T12:59:28;14.50;99.90
2851;DHT22;1433;49.976;8.342;2023-04-25T13:01:54;13.70;99.90
2851;DHT22;1433;49.976;8.342;2023-04-25T13:04:20;13.30;99.90
2851;DHT22;1433;49.976;8.342;2023-04-25T13:06:47;12.00;99.90
2851;DHT22;1433;49.976;8.342;2023-04-25T13:09:13;11.80;1.00
2851;DHT22;1433;49.976;8.342;2023-04-25T13:11:41;12.00;1.00
2851;DHT22;1433;49.976;8.342;2023-04-25T13:14:07;12.00;99.90
2851;DHT22;1433;49.976;8.342;2023-04-25T13:16:34;12.40;1.00
2851;DHT22;1433;49.976;8.342;2023-04-25T13:19:00;12.60;99.90
2851;DHT22;1433;49.976;8.342;2023-04-25T13:21:26;12.50;99.90
2851;DHT22;1433;49.976;8.342;2023-04-25T13:23:53;12.50;99.90
2851;DHT22;1433;49.976;8.342;2023-04-25T13:26:22;12.10;99.90
2851;DHT22;1433;49.976;8.342;2023-04-25T13:28:48;12.10;99.90
2851;DHT22;1433;49.976;8.342;2023-04-25T13:31:14;12.50;99.90
2851;DHT22;1433;49.976;8.342;2023-04-25T13:33:40;12.40;99.90
2851;DHT22;1433;49.976;8.342;2023-04-25T13:36:07;12.30;99.90
2851;DHT22;1433;49.976;8.342;2023-04-25T13:38:33;12.20;99.90
2851;DHT22;1433;49.976;8.342;2023-04-25T13:40:59;12.40;99.90
2851;DHT22;1433;49.976;8.342;2023-04-25T13:43:26;12.80;99.90
2851;DHT22;1433;49.976;8.342;2023-04-25T13:45:52;12.50;99.90
2851;DHT22;1433;49.976;8.342;2023-04-25T13:48:19;12.30;99.90
2851;DHT22;1433;49.976;8.342;2023-04-25T13:50:45;12.30;99.90
2851;DHT22;1433;49.976;8.342;2023-04-25T13:53:12;12.40;99.90
2851;DHT22;1433;49.976;8.342;2023-04-25T13:55:38;12.60;99.90
2851;DHT22;1433;49.976;8.342;2023-04-25T13:58:04;12.60;99.90
2851;DHT22;1433;49.976;8.342;2023-04-25T14:00:37;12.30;99.90
2851;DHT22;1433;49.976;8.342;2023-04-25T14:03:08;12.30;99.90
2851;DHT22;1433;49.976;8.342;2023-04-25T14:05:35;12.10;1.00
2851;DHT22;1433;49.976;8.342;2023-04-25T14:08:07;12.20;99.90
2851;DHT22;1433;49.976;8.342;2023-04-25T14:10:34;12.40;99.90
2851;DHT22;1433;49.976;8.342;2023-04-25T14:13:00;12.40;99.90
2851;DHT22;1433;49.976;8.342;2023-04-25T14:15:27;12.10;99.90
2851;DHT22;1433;49.976;8.342;2023-04-25T14:17:53;12.00;99.90
2851;DHT22;1433;49.976;8.342;2023-04-25T14:20:19;12.00;99.90
2851;DHT22;1433;49.976;8.342;2023-04-25T14:22:47;12.00;99.90
2851;DHT22;1433;49.976;8.342;2023-04-25T14:25:13;11.90;99.90
2851;DHT22;1433;49.976;8.342;2023-04-25T14:27:39;11.90;99.90
2851;DHT22;1433;49.976;8.342;2023-04-25T14:30:06;11.80;99.90
2851;DHT22;1433;49.976;8.342;2023-04-25T14:32:34;11.70;99.90
2851;DHT22;1433;49.976;8.342;2023-04-25T14:35:01;11.80;99.90
2851;DHT22;1433;49.976;8.342;2023-04-25T14:37:27;12.00;99.90
2851;DHT22;1433;49.976;8.342;2023-04-25T14:39:53;12.50;99.90
2851;DHT22;1433;49.976;8.342;2023-04-25T14:42:19;12.90;99.90
2851;DHT22;1433;49.976;8.342;2023-04-25T14:44:45;14.20;99.90
2851;DHT22;1433;49.976;8.342;2023-04-25T14:47:12;14.80;99.90
2851;DHT22;1433;49.976;8.342;2023-04-25T14:49:39;13.80;99.90
2851;DHT22;1433;49.976;8.342;2023-04-25T14:52:05;12.90;99.90
2851;DHT22;1433;49.976;8.342;2023-04-25T14:54:31;12.50;99.90
2851;DHT22;1433;49.976;8.342;2023-04-25T14:56:57;12.30;99.90
2851;DHT22;1433;49.976;8.342;2023-04-25T14:59:23;12.00;99.90
2851;DHT22;1433;49.976;8.342;2023-04-25T15:01:50;11.80;99.90
2851;DHT22;1433;49.976;8.342;2023-04-25T15:04:16;11.80;99.90
2851;DHT22;1433;49.976;8.342;2023-04-25T15:06:43;11.80;99.90
2851;DHT22;1433;49.976;8.342;2023-04-25T15:09:09;11.70;99.90
2851;DHT22;1433;49.976;8.342;2023-04-25T15:11:37;11.70;99.90
2851;DHT22;1433;49.976;8.342;2023-04-25T15:14:03;12.20;99.90
2851;DHT22;1433;49.976;8.342;2023-04-25T15:16:44;12.60;99.90
2851;DHT22;1433;49.976;8.342;2023-04-25T15:19:11;13.20;99.90
2851;DHT22;1433;49.976;8.342;2023-04-25T15:21:53;13.60;99.90
2851;DHT22;1433;49.976;8.342;2023-04-25T15:24:20;13.70;99.90
2851;DHT22;1433;49.976;8.342;2023-04-25T15:26:47;13.50;99.90
2851;DHT22;1433;49.976;8.342;2023-04-25T15:29:13;13.10;99.90
2851;DHT22;1433;49.976;8.342;2023-04-25T15:31:40;12.70;99.90
2851;DHT22;1433;49.976;8.342;2023-04-25T15:34:06;12.30;99.90
2851;DHT22;1433;49.976;8.342;2023-04-25T15:36:32;12.20;99.90
2851;DHT22;1433;49.976;8.342;2023-04-25T15:38:59;12.00;99.90
2851;DHT22;1433;49.976;8.342;2023-04-25T15:41:25;12.30;99.90
2851;DHT22;1433;49.976;8.342;2023-04-25T15:43:52;12.60;99.90
2851;DHT22;1433;49.976;8.342;2023-04-25T15:46:19;13.30;99.90
2851;DHT22;1433;49.976;8.342;2023-04-25T15:48:46;14.30;99.90
2851;DHT22;1433;49.976;8.342;2023-04-25T15:51:13;14.70;99.90
2851;DHT22;1433;49.976;8.342;2023-04-25T15:53:39;14.00;99.90
2851;DHT22;1433;49.976;8.342;2023-04-25T15:56:06;13.20;99.90
2851;DHT22;1433;49.976;8.342;2023-04-25T15:58:32;14.10;99.90
2851;DHT22;1433;49.976;8.342;2023-04-25T16:00:58;14.80;99.90
2851;DHT22;1433;49.976;8.342;2023-04-25T16:03:24;13.90;99.90
2851;DHT22;1433;49.976;8.342;2023-04-25T16:05:51;14.00;99.90
2851;DHT22;1433;49.976;8.342;2023-04-25T16:08:18;13.60;99.90
2851;DHT22;1433;49.976;8.342;2023-04-25T16:10:44;13.30;99.90
2851;DHT22;1433;49.976;8.342;2023-04-25T16:13:10;12.90;99.90
2851;DHT22;1433;49.976;8.342;2023-04-25T16:15:37;12.50;99.90
2851;DHT22;1433;49.976;8.342;2023-04-25T16:18:03;12.80;99.90
2851;DHT22;1433;49.976;8.342;2023-04-25T16:20:30;12.90;99.90
2851;DHT22;1433;49.976;8.342;2023-04-25T16:22:56;12.80;99.90
2851;DHT22;1433;49.976;8.342;2023-04-25T16:25:22;13.00;99.90
2851;DHT22;1433;49.976;8.342;2023-04-25T16:27:48;13.60;99.90